sensor_id;sensor_type;location;lat;lon;timestamp;temperature;humidity
70550;DHT22;58101;48.658;2.328;2023-01-04T00:01:40;9.70;99.90
70550;DHT22;58101;48.658;2.328;2023-01-04T00:04:05;9.70;99.90
70550;DHT22;58101;48.658;2.328;2023-01-04T00:06:31;9.90;99.90
70550;DHT22;58101;48.658;2.328;2023-01-04T00:08:57;9.90;99.90
70550;DHT22;58101;48.658;2.328;2023-01-04T00:11:23;9.80;99.90
70550;DHT22;58101;48.658;2.328;2023-01-04T00:13:51;9.80;99.90
70550;DHT22;58101;48.658;2.328;2023-01-04T00:16:19;9.80;99.90
70550;DHT22;58101;48.658;2.328;2023-01-04T00:18:45;9.80;99.90
70550;DHT22;58101;48.658;2.328;2023-01-04T00:21:14;9.80;99.90
70550;DHT22;58101;48.658;2.328;2023-01-04T00:23:41;9.90;99.90
70550;DHT22;58101;48.658;2.328;2023-01-04T00:26:08;9.80;99.90
70550;DHT22;58101;48.658;2.328;2023-01-04T00:28:36;9.80;99.90
70550;DHT22;58101;48.658;2.328;2023-01-04T00:31:07;9.90;99.90
70550;DHT22;58101;48.658;2.328;2023-01-04T00:33:33;9.80;99.90
70550;DHT22;58101;48.658;2.328;2023-01-04T00:36:03;9.80;99.90
70550;DHT22;58101;48.658;2.328;2023-01-04T00:38:29;9.80;99.90
70550;DHT22;58101;48.658;2.328;2023-01-04T00:40:55;9.80;99.90
70550;DHT22;58101;48.658;2.328;2023-01-04T00:43:20;9.80;99.90
70550;DHT22;58101;48.658;2.328;2023-01-04T00:45:46;9.80;99.90
70550;DHT22;58101;48.658;2.328;2023-01-04T00:48:11;9.80;99.90
70550;DHT22;58101;48.658;2.328;2023-01-04T00:50:37;9.70;99.90
70550;DHT22;58101;48.658;2.328;2023-01-04T00:53:03;9.80;99.90
70550;DHT22;58101;48.658;2.328;2023-01-04T00:55:29;9.80;99.90
70550;DHT22;58101;48.658;2.328;2023-01-04T00:57:55;9.80;99.90
70550;DHT22;58101;48.658;2.328;2023-01-04T01:00:21;9.80;99.90
70550;DHT22;58101;48.658;2.328;2023-01-04T01:02:47;9.80;99.90
70550;DHT22;58101;48.658;2.328;2023-01-04T01:05:13;9.80;99.90
70550;DHT22;58101;48.658;2.328;2023-01-04T01:07:39;9.80;99.90
70550;DHT22;58101;48.658;2.328;2023-01-04T01:10:05;9.80;99.90
70550;DHT22;58101;48.658;2.328;2023-01-04T01:12:31;9.80;99.90
70550;DHT22;58101;48.658;2.328;2023-01-04T01:14:56;9.70;99.90
70550;DHT22;58101;48.658;2.328;2023-01-04T01:17:22;9.80;99.90
70550;DHT22;58101;48.658;2.328;2023-01-04T01:19:47;9.80;99.90
70550;DHT22;58101;48.658;2.328;2023-01-04T01:22:13;9.80;99.90
70550;DHT22;58101;48.658;2.328;2023-01-04T01:24:38;9.80;99.90
70550;DHT22;58101;48.658;2.328;2023-01-04T01:27:04;9.80;99.90
70550;DHT22;58101;48.658;2.328;2023-01-04T01:29:30;9.80;99.90
70550;DHT22;58101;48.658;2.328;2023-01-04T01:31:55;9.80;99.90
70550;DHT22;58101;48.658;2.328;2023-01-04T01:34:21;9.80;99.90
70550;DHT22;58101;48.658;2.328;2023-01-04T01:36:47;9.80;99.90
70550;DHT22;58101;48.658;2.328;2023-01-04T01:39:13;9.90;99.90
70550;DHT22;58101;48.658;2.328;2023-01-04T01:41:39;9.80;99.90
70550;DHT22;58101;48.658;2.328;2023-01-04T01:47:30;9.90;99.90
70550;DHT22;58101;48.658;2.328;2023-01-04T01:50:01;9.90;99.90
70550;DHT22;58101;48.658;2.328;2023-01-04T01:52:31;9.90;99.90
70550;DHT22;58101;48.658;2.328;2023-01-04T01:55:02;9.90;99.90
70550;DHT22;58101;48.658;2.328;2023-01-04T01:57:31;9.90;99.90
70550;DHT22;58101;48.658;2.328;2023-01-04T02:00:03;9.90;99.90
70550;DHT22;58101;48.658;2.328;2023-01-04T02:02:31;9.90;99.90
70550;DHT22;58101;48.658;2.328;2023-01-04T02:04:57;9.90;99.90
70550;DHT22;58101;48.658;2.328;2023-01-04T02:07:26;9.90;99.90
70550;DHT22;58101;48.658;2.328;2023-01-04T02:09:53;9.90;99.90
70550;DHT22;58101;48.658;2.328;2023-01-04T02:12:19;10.00;99.90
70550;DHT22;58101;48.658;2.328;2023-01-04T02:14:47;9.90;99.90
70550;DHT22;58101;48.658;2.328;2023-01-04T02:17:27;10.00;99.90
70550;DHT22;58101;48.658;2.328;2023-01-04T02:33:42;10.00;99.90
70550;DHT22;58101;48.658;2.328;2023-01-04T02:41:27;10.00;99.90
70550;DHT22;58101;48.658;2.328;2023-01-04T02:44:16;10.00;99.90
70550;DHT22;58101;48.658;2.328;2023-01-04T02:47:38;10.00;99.90
70550;DHT22;58101;48.658;2.328;2023-01-04T02:50:21;10.00;99.90
70550;DHT22;58101;48.658;2.328;2023-01-04T02:53:05;10.00;99.90
70550;DHT22;58101;48.658;2.328;2023-01-04T03:07:38;10.00;99.90
70550;DHT22;58101;48.658;2.328;2023-01-04T03:12:42;10.00;99.90
70550;DHT22;58101;48.658;2.328;2023-01-04T03:15:23;10.10;99.90
70550;DHT22;58101;48.658;2.328;2023-01-04T03:17:55;10.10;99.90
70550;DHT22;58101;48.658;2.328;2023-01-04T03:20:24;10.00;99.90
70550;DHT22;58101;48.658;2.328;2023-01-04T03:23:01;10.10;99.90
70550;DHT22;58101;48.658;2.328;2023-01-04T03:26:19;10.10;99.90
70550;DHT22;58101;48.658;2.328;2023-01-04T03:29:16;10.00;99.90
70550;DHT22;58101;48.658;2.328;2023-01-04T03:32:07;10.00;99.90
70550;DHT22;58101;48.658;2.328;2023-01-04T03:34:53;10.00;99.90
70550;DHT22;58101;48.658;2.328;2023-01-04T03:38:09;10.00;99.90
70550;DHT22;58101;48.658;2.328;2023-01-04T03:40:59;10.20;99.90
70550;DHT22;58101;48.658;2.328;2023-01-04T03:43:57;10.00;99.90
70550;DHT22;58101;48.658;2.328;2023-01-04T03:46:47;10.00;99.90
70550;DHT22;58101;48.658;2.328;2023-01-04T03:49:44;10.00;99.90
70550;DHT22;58101;48.658;2.328;2023-01-04T03:52:12;10.00;99.90
70550;DHT22;58101;48.658;2.328;2023-01-04T03:54:41;10.00;99.90
70550;DHT22;58101;48.658;2.328;2023-01-04T03:57:09;10.00;99.90
70550;DHT22;58101;48.658;2.328;2023-01-04T03:59:40;10.00;99.90
70550;DHT22;58101;48.658;2.328;2023-01-04T04:02:10;10.00;99.90
70550;DHT22;58101;48.658;2.328;2023-01-04T04:04:41;10.00;99.90
70550;DHT22;58101;48.658;2.328;2023-01-04T04:07:25;10.00;99.90
70550;DHT22;58101;48.658;2.328;2023-01-04T04:10:10;10.10;99.90
70550;DHT22;58101;48.658;2.328;2023-01-04T04:12:36;10.00;99.90
70550;DHT22;58101;48.658;2.328;2023-01-04T04:15:01;10.00;99.90
70550;DHT22;58101;48.658;2.328;2023-01-04T04:17:27;10.00;99.90
70550;DHT22;58101;48.658;2.328;2023-01-04T04:19:52;10.00;99.90
70550;DHT22;58101;48.658;2.328;2023-01-04T04:22:18;10.00;99.90
70550;DHT22;58101;48.658;2.328;2023-01-04T04:24:44;10.00;99.90
70550;DHT22;58101;48.658;2.328;2023-01-04T04:27:09;10.00;99.90
70550;DHT22;58101;48.658;2.328;2023-01-04T04:29:35;10.20;99.90
70550;DHT22;58101;48.658;2.328;2023-01-04T04:32:01;10.00;99.90
70550;DHT22;58101;48.658;2.328;2023-01-04T04:34:26;10.00;99.90
70550;DHT22;58101;48.658;2.328;2023-01-04T04:36:52;10.00;99.90
70550;DHT22;58101;48.658;2.328;2023-01-04T04:39:18;10.10;99.90
70550;DHT22;58101;48.658;2.328;2023-01-04T04:41:43;10.10;99.90
70550;DHT22;58101;48.658;2.328;2023-01-04T04:44:17;10.10;99.90
70550;DHT22;58101;48.658;2.328;2023-01-04T04:46:44;10.10;99.90
70550;DHT22;58101;48.658;2.328;2023-01-04T04:49:11;10.10;99.90
70550;DHT22;58101;48.658;2.328;2023-01-04T04:51:39;10.00;99.90
70550;DHT22;58101;48.658;2.328;2023-01-04T04:54:07;9.90;99.90
70550;DHT22;58101;48.658;2.328;2023-01-04T04:56:34;10.00;99.90
70550;DHT22;58101;48.658;2.328;2023-01-04T04:59:04;10.10;99.90
70550;DHT22;58101;48.658;2.328;2023-01-04T05:01:30;10.10;99.90
70550;DHT22;58101;48.658;2.328;2023-01-04T05:03:56;10.10;99.90
70550;DHT22;58101;48.658;2.328;2023-01-04T05:06:22;10.10;99.90
70550;DHT22;58101;48.658;2.328;2023-01-04T05:08:48;10.00;99.90
70550;DHT22;58101;48.658;2.328;2023-01-04T05:11:13;10.00;99.90
70550;DHT22;58101;48.658;2.328;2023-01-04T05:13:39;10.20;99.90
70550;DHT22;58101;48.658;2.328;2023-01-04T05:16:06;10.20;99.90
70550;DHT22;58101;48.658;2.328;2023-01-04T05:18:32;10.20;99.90
70550;DHT22;58101;48.658;2.328;2023-01-04T05:20:59;10.30;99.90
70550;DHT22;58101;48.658;2.328;2023-01-04T05:23:24;10.20;99.90
70550;DHT22;58101;48.658;2.328;2023-01-04T05:25:52;10.20;99.90
70550;DHT22;58101;48.658;2.328;2023-01-04T05:28:18;10.30;99.90
70550;DHT22;58101;48.658;2.328;2023-01-04T05:30:44;10.20;99.90
70550;DHT22;58101;48.658;2.328;2023-01-04T05:33:22;10.40;99.90
70550;DHT22;58101;48.658;2.328;2023-01-04T05:35:48;10.20;99.90
70550;DHT22;58101;48.658;2.328;2023-01-04T05:38:14;10.30;99.90
70550;DHT22;58101;48.658;2.328;2023-01-04T05:40:40;10.10;99.90
70550;DHT22;58101;48.658;2.328;2023-01-04T05:43:06;10.20;99.90
70550;DHT22;58101;48.658;2.328;2023-01-04T05:45:32;10.20;99.90
70550;DHT22;58101;48.658;2.328;2023-01-04T05:47:58;10.20;99.90
70550;DHT22;58101;48.658;2.328;2023-01-04T05:50:24;10.20;99.90
70550;DHT22;58101;48.658;2.328;2023-01-04T05:52:50;10.30;99.90
70550;DHT22;58101;48.658;2.328;2023-01-04T05:55:16;10.30;99.90
70550;DHT22;58101;48.658;2.328;2023-01-04T05:57:42;10.30;99.90
70550;DHT22;58101;48.658;2.328;2023-01-04T06:00:08;10.30;99.90
70550;DHT22;58101;48.658;2.328;2023-01-04T06:02:34;10.30;99.90
70550;DHT22;58101;48.658;2.328;2023-01-04T06:05:00;10.20;99.90
70550;DHT22;58101;48.658;2.328;2023-01-04T06:07:29;10.20;99.90
70550;DHT22;58101;48.658;2.328;2023-01-04T06:09:54;10.30;99.90
70550;DHT22;58101;48.658;2.328;2023-01-04T06:12:20;10.30;99.90
70550;DHT22;58101;48.658;2.328;2023-01-04T06:14:46;10.20;99.90
70550;DHT22;58101;48.658;2.328;2023-01-04T06:17:12;10.10;99.90
70550;DHT22;58101;48.658;2.328;2023-01-04T06:19:37;10.20;99.90
70550;DHT22;58101;48.658;2.328;2023-01-04T06:22:03;10.20;99.90
70550;DHT22;58101;48.658;2.328;2023-01-04T06:24:29;10.20;99.90
70550;DHT22;58101;48.658;2.328;2023-01-04T06:26:55;10.30;99.90
70550;DHT22;58101;48.658;2.328;2023-01-04T06:29:20;10.30;99.90
70550;DHT22;58101;48.658;2.328;2023-01-04T06:31:46;10.30;99.90
70550;DHT22;58101;48.658;2.328;2023-01-04T06:34:13;10.30;99.90
70550;DHT22;58101;48.658;2.328;2023-01-04T06:36:39;10.30;99.90
70550;DHT22;58101;48.658;2.328;2023-01-04T06:39:05;10.20;99.90
70550;DHT22;58101;48.658;2.328;2023-01-04T06:41:31;10.40;99.90
70550;DHT22;58101;48.658;2.328;2023-01-04T06:43:57;10.40;99.90
70550;DHT22;58101;48.658;2.328;2023-01-04T06:46:23;10.40;99.90
70550;DHT22;58101;48.658;2.328;2023-01-04T06:48:48;10.40;99.90
70550;DHT22;58101;48.658;2.328;2023-01-04T06:51:14;10.40;99.90
70550;DHT22;58101;48.658;2.328;2023-01-04T06:53:40;10.50;99.90
70550;DHT22;58101;48.658;2.328;2023-01-04T06:56:06;10.50;99.90
70550;DHT22;58101;48.658;2.328;2023-01-04T06:58:34;10.50;99.90
70550;DHT22;58101;48.658;2.328;2023-01-04T07:00:59;10.50;99.90
70550;DHT22;58101;48.658;2.328;2023-01-04T07:03:25;10.50;99.90
70550;DHT22;58101;48.658;2.328;2023-01-04T07:05:50;10.60;99.90
70550;DHT22;58101;48.658;2.328;2023-01-04T07:08:16;10.50;99.90
70550;DHT22;58101;48.658;2.328;2023-01-04T07:10:42;10.50;99.90
70550;DHT22;58101;48.658;2.328;2023-01-04T07:13:08;10.60;99.90
70550;DHT22;58101;48.658;2.328;2023-01-04T07:15:37;10.40;99.90
70550;DHT22;58101;48.658;2.328;2023-01-04T07:18:03;10.40;99.90
70550;DHT22;58101;48.658;2.328;2023-01-04T07:20:29;10.40;99.90
70550;DHT22;58101;48.658;2.328;2023-01-04T07:22:54;10.40;99.90
70550;DHT22;58101;48.658;2.328;2023-01-04T07:25:20;10.40;99.90
70550;DHT22;58101;48.658;2.328;2023-01-04T07:27:52;10.40;99.90
70550;DHT22;58101;48.658;2.328;2023-01-04T07:30:22;10.40;99.90
70550;DHT22;58101;48.658;2.328;2023-01-04T07:32:48;10.30;99.90
70550;DHT22;58101;48.658;2.328;2023-01-04T07:35:15;10.40;99.90
70550;DHT22;58101;48.658;2.328;2023-01-04T07:37:42;10.40;99.90
70550;DHT22;58101;48.658;2.328;2023-01-04T07:40:08;10.50;99.90
70550;DHT22;58101;48.658;2.328;2023-01-04T07:42:34;10.40;99.90
70550;DHT22;58101;48.658;2.328;2023-01-04T07:45:00;10.40;99.90
70550;DHT22;58101;48.658;2.328;2023-01-04T07:47:26;10.50;99.90
70550;DHT22;58101;48.658;2.328;2023-01-04T07:49:52;10.40;99.90
70550;DHT22;58101;48.658;2.328;2023-01-04T07:52:18;10.50;99.90
70550;DHT22;58101;48.658;2.328;2023-01-04T07:54:43;10.50;99.90
70550;DHT22;58101;48.658;2.328;2023-01-04T07:57:09;10.60;99.90
70550;DHT22;58101;48.658;2.328;2023-01-04T07:59:35;10.60;99.90
70550;DHT22;58101;48.658;2.328;2023-01-04T08:02:00;10.60;99.90
70550;DHT22;58101;48.658;2.328;2023-01-04T08:04:26;10.80;99.90
70550;DHT22;58101;48.658;2.328;2023-01-04T08:06:52;10.70;99.90
70550;DHT22;58101;48.658;2.328;2023-01-04T08:09:17;10.70;99.90
70550;DHT22;58101;48.658;2.328;2023-01-04T08:11:44;10.70;99.90
70550;DHT22;58101;48.658;2.328;2023-01-04T08:14:10;10.80;99.90
70550;DHT22;58101;48.658;2.328;2023-01-04T08:16:38;10.80;99.90
70550;DHT22;58101;48.658;2.328;2023-01-04T08:19:07;10.80;99.90
70550;DHT22;58101;48.658;2.328;2023-01-04T08:21:34;10.80;99.90
70550;DHT22;58101;48.658;2.328;2023-01-04T08:24:01;10.70;99.90
70550;DHT22;58101;48.658;2.328;2023-01-04T08:26:27;11.00;99.90
70550;DHT22;58101;48.658;2.328;2023-01-04T08:28:53;10.80;99.90
70550;DHT22;58101;48.658;2.328;2023-01-04T08:31:23;10.90;99.90
70550;DHT22;58101;48.658;2.328;2023-01-04T08:33:49;10.90;99.90
70550;DHT22;58101;48.658;2.328;2023-01-04T08:36:25;10.80;99.90
70550;DHT22;58101;48.658;2.328;2023-01-04T08:38:53;10.90;99.90
70550;DHT22;58101;48.658;2.328;2023-01-04T08:41:19;10.90;99.90
70550;DHT22;58101;48.658;2.328;2023-01-04T08:43:45;10.90;99.90
70550;DHT22;58101;48.658;2.328;2023-01-04T08:46:11;10.80;99.90
70550;DHT22;58101;48.658;2.328;2023-01-04T08:48:37;10.70;99.90
70550;DHT22;58101;48.658;2.328;2023-01-04T08:51:06;10.80;99.90
70550;DHT22;58101;48.658;2.328;2023-01-04T08:53:32;10.80;99.90
70550;DHT22;58101;48.658;2.328;2023-01-04T08:55:58;10.80;99.90
70550;DHT22;58101;48.658;2.328;2023-01-04T08:58:26;10.90;99.90
70550;DHT22;58101;48.658;2.328;2023-01-04T09:00:52;10.80;99.90
70550;DHT22;58101;48.658;2.328;2023-01-04T09:03:18;10.90;99.90
70550;DHT22;58101;48.658;2.328;2023-01-04T09:05:43;10.90;99.90
70550;DHT22;58101;48.658;2.328;2023-01-04T09:08:10;10.90;99.90
70550;DHT22;58101;48.658;2.328;2023-01-04T09:10:37;10.90;99.90
70550;DHT22;58101;48.658;2.328;2023-01-04T09:13:03;10.90;99.90
70550;DHT22;58101;48.658;2.328;2023-01-04T09:15:29;10.80;99.90
70550;DHT22;58101;48.658;2.328;2023-01-04T09:17:54;10.90;99.90
70550;DHT22;58101;48.658;2.328;2023-01-04T09:20:20;10.80;99.90
70550;DHT22;58101;48.658;2.328;2023-01-04T09:22:45;10.70;99.90
70550;DHT22;58101;48.658;2.328;2023-01-04T09:25:11;10.80;99.90
70550;DHT22;58101;48.658;2.328;2023-01-04T09:27:37;10.90;99.90
70550;DHT22;58101;48.658;2.328;2023-01-04T09:30:04;10.90;99.90
70550;DHT22;58101;48.658;2.328;2023-01-04T09:32:30;10.80;99.90
70550;DHT22;58101;48.658;2.328;2023-01-04T09:34:56;10.80;99.90
70550;DHT22;58101;48.658;2.328;2023-01-04T09:37:22;10.80;99.90
70550;DHT22;58101;48.658;2.328;2023-01-04T09:39:47;10.80;99.90
70550;DHT22;58101;48.658;2.328;2023-01-04T09:42:48;10.80;99.90
70550;DHT22;58101;48.658;2.328;2023-01-04T09:45:20;10.90;99.90
70550;DHT22;58101;48.658;2.328;2023-01-04T09:47:57;10.80;99.90
70550;DHT22;58101;48.658;2.328;2023-01-04T09:50:33;10.80;99.90
70550;DHT22;58101;48.658;2.328;2023-01-04T09:53:31;10.80;99.90
70550;DHT22;58101;48.658;2.328;2023-01-04T09:56:22;10.90;99.90
70550;DHT22;58101;48.658;2.328;2023-01-04T09:58:50;10.80;99.90
70550;DHT22;58101;48.658;2.328;2023-01-04T10:01:25;10.80;99.90
70550;DHT22;58101;48.658;2.328;2023-01-04T10:07:24;10.80;99.90
70550;DHT22;58101;48.658;2.328;2023-01-04T10:09:50;10.80;99.90
70550;DHT22;58101;48.658;2.328;2023-01-04T10:15:16;10.90;99.90
70550;DHT22;58101;48.658;2.328;2023-01-04T10:20:34;10.90;99.90
70550;DHT22;58101;48.658;2.328;2023-01-04T10:23:16;11.00;99.90
70550;DHT22;58101;48.658;2.328;2023-01-04T10:25:56;11.00;99.90
70550;DHT22;58101;48.658;2.328;2023-01-04T10:31:31;11.00;99.90
70550;DHT22;58101;48.658;2.328;2023-01-04T10:34:05;11.00;99.90
70550;DHT22;58101;48.658;2.328;2023-01-04T10:36:37;11.00;99.90
70550;DHT22;58101;48.658;2.328;2023-01-04T10:39:11;11.10;99.90
70550;DHT22;58101;48.658;2.328;2023-01-04T10:41:44;11.10;99.90
70550;DHT22;58101;48.658;2.328;2023-01-04T10:44:17;11.10;99.90
70550;DHT22;58101;48.658;2.328;2023-01-04T10:49:52;11.20;99.90
70550;DHT22;58101;48.658;2.328;2023-01-04T10:52:39;11.20;99.90
70550;DHT22;58101;48.658;2.328;2023-01-04T10:57:50;11.30;99.90
70550;DHT22;58101;48.658;2.328;2023-01-04T11:00:18;11.30;99.90
70550;DHT22;58101;48.658;2.328;2023-01-04T11:03:03;11.40;99.90
70550;DHT22;58101;48.658;2.328;2023-01-04T11:05:45;11.30;99.90
70550;DHT22;58101;48.658;2.328;2023-01-04T11:08:20;11.40;99.90
70550;DHT22;58101;48.658;2.328;2023-01-04T11:11:00;11.40;99.90
70550;DHT22;58101;48.658;2.328;2023-01-04T11:13:27;11.40;99.90
70550;DHT22;58101;48.658;2.328;2023-01-04T11:15:53;11.50;99.90
70550;DHT22;58101;48.658;2.328;2023-01-04T11:18:19;11.50;99.90
70550;DHT22;58101;48.658;2.328;2023-01-04T11:20:45;11.50;99.90
70550;DHT22;58101;48.658;2.328;2023-01-04T11:23:17;11.50;99.90
70550;DHT22;58101;48.658;2.328;2023-01-04T11:25:53;11.70;99.90
70550;DHT22;58101;48.658;2.328;2023-01-04T11:36:40;11.50;99.90
70550;DHT22;58101;48.658;2.328;2023-01-04T11:39:21;11.50;99.90
70550;DHT22;58101;48.658;2.328;2023-01-04T11:41:57;11.50;99.90
70550;DHT22;58101;48.658;2.328;2023-01-04T11:44:24;11.50;99.90
70550;DHT22;58101;48.658;2.328;2023-01-04T11:47:16;11.50;99.90
70550;DHT22;58101;48.658;2.328;2023-01-04T11:49:43;11.50;99.90
70550;DHT22;58101;48.658;2.328;2023-01-04T11:52:34;11.50;99.90
70550;DHT22;58101;48.658;2.328;2023-01-04T11:55:15;11.40;99.90
70550;DHT22;58101;48.658;2.328;2023-01-04T11:57:41;11.50;99.90
70550;DHT22;58101;48.658;2.328;2023-01-04T12:00:14;11.40;99.90
70550;DHT22;58101;48.658;2.328;2023-01-04T12:02:40;11.50;99.90
70550;DHT22;58101;48.658;2.328;2023-01-04T12:05:18;11.50;99.90
70550;DHT22;58101;48.658;2.328;2023-01-04T12:07:45;11.50;99.90
70550;DHT22;58101;48.658;2.328;2023-01-04T12:10:22;11.50;99.90
70550;DHT22;58101;48.658;2.328;2023-01-04T12:12:52;11.50;99.90
70550;DHT22;58101;48.658;2.328;2023-01-04T12:15:31;11.50;99.90
70550;DHT22;58101;48.658;2.328;2023-01-04T12:18:05;11.60;99.90
70550;DHT22;58101;48.658;2.328;2023-01-04T12:20:32;11.60;99.90
70550;DHT22;58101;48.658;2.328;2023-01-04T12:22:57;11.60;99.90
70550;DHT22;58101;48.658;2.328;2023-01-04T12:25:39;11.60;99.90
70550;DHT22;58101;48.658;2.328;2023-01-04T12:30:53;11.70;99.90
70550;DHT22;58101;48.658;2.328;2023-01-04T12:36:19;11.70;99.90
70550;DHT22;58101;48.658;2.328;2023-01-04T12:41:21;11.80;99.90
70550;DHT22;58101;48.658;2.328;2023-01-04T12:43:48;11.70;99.90
70550;DHT22;58101;48.658;2.328;2023-01-04T12:54:53;11.80;99.90
70550;DHT22;58101;48.658;2.328;2023-01-04T12:57:38;11.90;99.90
70550;DHT22;58101;48.658;2.328;2023-01-04T13:00:14;11.80;99.90
70550;DHT22;58101;48.658;2.328;2023-01-04T13:02:44;12.00;99.90
70550;DHT22;58101;48.658;2.328;2023-01-04T13:08:07;11.90;99.90
70550;DHT22;58101;48.658;2.328;2023-01-04T13:16:05;12.00;99.90
70550;DHT22;58101;48.658;2.328;2023-01-04T13:21:37;12.10;99.90
70550;DHT22;58101;48.658;2.328;2023-01-04T13:24:30;12.10;99.90
70550;DHT22;58101;48.658;2.328;2023-01-04T13:27:03;12.20;99.90
70550;DHT22;58101;48.658;2.328;2023-01-04T13:29:32;12.20;99.90
70550;DHT22;58101;48.658;2.328;2023-01-04T13:32:10;12.20;99.90
70550;DHT22;58101;48.658;2.328;2023-01-04T13:34:39;12.20;99.90
70550;DHT22;58101;48.658;2.328;2023-01-04T13:39:47;12.20;99.90
70550;DHT22;58101;48.658;2.328;2023-01-04T13:42:23;12.20;99.90
70550;DHT22;58101;48.658;2.328;2023-01-04T13:47:41;12.20;99.90
70550;DHT22;58101;48.658;2.328;2023-01-04T13:52:49;12.20;99.90
70550;DHT22;58101;48.658;2.328;2023-01-04T14:00:42;12.20;99.90
70550;DHT22;58101;48.658;2.328;2023-01-04T14:03:21;12.10;99.90
70550;DHT22;58101;48.658;2.328;2023-01-04T14:05:50;12.10;99.90
70550;DHT22;58101;48.658;2.328;2023-01-04T14:10:51;12.10;99.90
70550;DHT22;58101;48.658;2.328;2023-01-04T14:13:18;12.10;99.90
70550;DHT22;58101;48.658;2.328;2023-01-04T14:15:44;12.10;99.90
70550;DHT22;58101;48.658;2.328;2023-01-04T14:18:29;12.10;99.90
70550;DHT22;58101;48.658;2.328;2023-01-04T14:20:55;12.00;99.90
70550;DHT22;58101;48.658;2.328;2023-01-04T14:23:27;12.10;99.90
70550;DHT22;58101;48.658;2.328;2023-01-04T14:25:53;12.00;99.90
70550;DHT22;58101;48.658;2.328;2023-01-04T14:36:11;12.00;99.90
70550;DHT22;58101;48.658;2.328;2023-01-04T14:39:22;12.00;99.90
70550;DHT22;58101;48.658;2.328;2023-01-04T14:41:42;12.00;99.90
70550;DHT22;58101;48.658;2.328;2023-01-04T14:44:24;12.00;99.90
70550;DHT22;58101;48.658;2.328;2023-01-04T14:46:56;12.00;99.90
70550;DHT22;58101;48.658;2.328;2023-01-04T14:49:22;12.00;99.90
70550;DHT22;58101;48.658;2.328;2023-01-04T14:51:55;12.00;99.90
70550;DHT22;58101;48.658;2.328;2023-01-04T14:54:22;12.00;99.90
70550;DHT22;58101;48.658;2.328;2023-01-04T14:56:48;11.90;99.90
70550;DHT22;58101;48.658;2.328;2023-01-04T14:59:14;11.90;99.90
70550;DHT22;58101;48.658;2.328;2023-01-04T15:01:40;11.90;99.90
70550;DHT22;58101;48.658;2.328;2023-01-04T15:04:05;12.00;99.90
70550;DHT22;58101;48.658;2.328;2023-01-04T15:06:33;11.90;99.90
70550;DHT22;58101;48.658;2.328;2023-01-04T15:08:58;12.00;99.90
70550;DHT22;58101;48.658;2.328;2023-01-04T15:11:24;11.80;99.90
70550;DHT22;58101;48.658;2.328;2023-01-04T15:13:50;12.00;99.90
70550;DHT22;58101;48.658;2.328;2023-01-04T15:16:17;11.90;99.90
70550;DHT22;58101;48.658;2.328;2023-01-04T15:18:44;11.90;99.90
70550;DHT22;58101;48.658;2.328;2023-01-04T15:21:12;12.00;99.90
70550;DHT22;58101;48.658;2.328;2023-01-04T15:23:38;11.90;99.90
70550;DHT22;58101;48.658;2.328;2023-01-04T15:26:09;11.90;99.90
70550;DHT22;58101;48.658;2.328;2023-01-04T15:28:35;12.00;99.90
70550;DHT22;58101;48.658;2.328;2023-01-04T15:31:10;12.00;99.90
70550;DHT22;58101;48.658;2.328;2023-01-04T15:33:36;12.00;99.90
70550;DHT22;58101;48.658;2.328;2023-01-04T15:36:05;12.00;99.90
70550;DHT22;58101;48.658;2.328;2023-01-04T15:38:31;12.00;99.90
70550;DHT22;58101;48.658;2.328;2023-01-04T15:41:09;12.00;99.90
70550;DHT22;58101;48.658;2.328;2023-01-04T15:43:36;12.00;99.90
70550;DHT22;58101;48.658;2.328;2023-01-04T15:46:06;11.90;99.90
70550;DHT22;58101;48.658;2.328;2023-01-04T15:48:33;12.00;99.90
70550;DHT22;58101;48.658;2.328;2023-01-04T15:51:02;12.00;99.90
70550;DHT22;58101;48.658;2.328;2023-01-04T15:53:28;12.20;99.90
70550;DHT22;58101;48.658;2.328;2023-01-04T15:55:53;12.00;99.90
70550;DHT22;58101;48.658;2.328;2023-01-04T15:58:19;12.10;99.90
70550;DHT22;58101;48.658;2.328;2023-01-04T16:00:45;12.10;99.90
70550;DHT22;58101;48.658;2.328;2023-01-04T16:03:11;12.10;99.90
70550;DHT22;58101;48.658;2.328;2023-01-04T16:05:36;12.00;99.90
70550;DHT22;58101;48.658;2.328;2023-01-04T16:08:02;12.10;99.90
70550;DHT22;58101;48.658;2.328;2023-01-04T16:10:28;12.10;99.90
70550;DHT22;58101;48.658;2.328;2023-01-04T16:12:53;12.00;99.90
70550;DHT22;58101;48.658;2.328;2023-01-04T16:15:21;12.10;99.90
70550;DHT22;58101;48.658;2.328;2023-01-04T16:17:47;12.00;99.90
70550;DHT22;58101;48.658;2.328;2023-01-04T16:20:16;12.10;99.90
70550;DHT22;58101;48.658;2.328;2023-01-04T16:22:42;12.10;99.90
70550;DHT22;58101;48.658;2.328;2023-01-04T16:25:08;12.10;99.90
70550;DHT22;58101;48.658;2.328;2023-01-04T16:27:34;12.10;99.90
70550;DHT22;58101;48.658;2.328;2023-01-04T16:30:04;12.00;99.90
70550;DHT22;58101;48.658;2.328;2023-01-04T16:32:30;12.20;99.90
70550;DHT22;58101;48.658;2.328;2023-01-04T16:34:56;12.40;99.90
70550;DHT22;58101;48.658;2.328;2023-01-04T16:37:25;12.20;99.90
70550;DHT22;58101;48.658;2.328;2023-01-04T16:39:52;12.20;99.90
70550;DHT22;58101;48.658;2.328;2023-01-04T16:42:18;12.30;99.90
70550;DHT22;58101;48.658;2.328;2023-01-04T16:44:43;12.20;99.90
70550;DHT22;58101;48.658;2.328;2023-01-04T16:47:09;12.20;99.90
70550;DHT22;58101;48.658;2.328;2023-01-04T16:49:35;12.30;99.90
70550;DHT22;58101;48.658;2.328;2023-01-04T16:52:00;12.20;99.90
70550;DHT22;58101;48.658;2.328;2023-01-04T16:54:26;12.30;99.90
70550;DHT22;58101;48.658;2.328;2023-01-04T16:56:52;12.30;99.90
70550;DHT22;58101;48.658;2.328;2023-01-04T16:59:20;12.40;99.90
70550;DHT22;58101;48.658;2.328;2023-01-04T17:01:46;12.50;99.90
70550;DHT22;58101;48.658;2.328;2023-01-04T17:04:14;12.40;99.90
70550;DHT22;58101;48.658;2.328;2023-01-04T17:06:42;12.50;99.90
70550;DHT22;58101;48.658;2.328;2023-01-04T17:09:14;12.50;99.90
70550;DHT22;58101;48.658;2.328;2023-01-04T17:11:40;12.50;99.90
70550;DHT22;58101;48.658;2.328;2023-01-04T17:14:07;12.60;99.90
70550;DHT22;58101;48.658;2.328;2023-01-04T17:16:34;12.50;99.90
70550;DHT22;58101;48.658;2.328;2023-01-04T17:19:00;12.60;99.90
70550;DHT22;58101;48.658;2.328;2023-01-04T17:21:27;12.60;99.90
70550;DHT22;58101;48.658;2.328;2023-01-04T17:23:55;12.60;99.90
70550;DHT22;58101;48.658;2.328;2023-01-04T17:26:27;12.60;99.90
70550;DHT22;58101;48.658;2.328;2023-01-04T17:28:54;12.60;99.90
70550;DHT22;58101;48.658;2.328;2023-01-04T17:31:23;12.70;99.90
70550;DHT22;58101;48.658;2.328;2023-01-04T17:33:49;12.60;99.90
70550;DHT22;58101;48.658;2.328;2023-01-04T17:36:16;12.70;99.90
70550;DHT22;58101;48.658;2.328;2023-01-04T17:38:43;12.70;99.90
70550;DHT22;58101;48.658;2.328;2023-01-04T17:41:12;12.80;99.90
70550;DHT22;58101;48.658;2.328;2023-01-04T17:43:39;12.90;99.90